FFA weather

First Flight Airport
Kill Devil Hills, North Carolina, United States

Public forecast

Using degrees Fahrenheit for public forecast. Weather courtesy of forecast.io.

Current aviation weather report (METAR) for First Flight Airport

Retrieved 2019/10/21 21:35 UTC (0 seconds ago):

KFFA 212135Z AUTO 00000KT 10SM OVC012 16/14 A3006 RMK AO2 T01570140

Closest aviation forecast (TAF) to First Flight Airport

Closest forecast is Elizabeth City Regional Airport & Coast Guard Air Station, 28.4 nm (52.6 km) WNW. Retrieved 2019/10/21 19:06 UTC (2 hours ago):

TAF KECG 211900Z 2119/2218 31007KT P6SM OVC010 FM212300 03006KT P6SM OVC008 FM221200 14004KT P6SM BKN025 FM221500 15009KT P6SM BKN035